createdAt,value
2022-08-08T00:00:52.597Z,24.24
2022-08-08T00:07:01.329Z,24.26
2022-08-08T00:13:20.889Z,24.21
2022-08-08T00:19:35.664Z,24.22
2022-08-08T00:25:39.028Z,24.21
2022-08-08T00:32:15.348Z,24.19
2022-08-08T00:38:17.045Z,24.20
2022-08-08T00:44:29.663Z,24.17
2022-08-08T00:50:31.746Z,24.21
2022-08-08T00:56:33.313Z,24.16
2022-08-08T01:03:58.733Z,24.19
2022-08-08T01:08:56.297Z,24.16
2022-08-08T01:15:00.403Z,24.12
2022-08-08T01:21:04.413Z,24.13
2022-08-08T01:27:07.044Z,24.12
2022-08-08T01:33:16.273Z,24.15
2022-08-08T01:39:27.765Z,24.13
2022-08-08T01:45:29.832Z,24.11
2022-08-08T01:52:04.675Z,24.11
2022-08-08T01:58:11.671Z,24.08
2022-08-08T02:04:14.341Z,24.07
2022-08-08T02:10:30.255Z,24.06
2022-08-08T02:16:37.817Z,24.07
2022-08-08T02:22:52.396Z,24.05
2022-08-08T02:28:54.611Z,24.06
2022-08-08T02:35:08.354Z,24.07
2022-08-08T02:41:18.017Z,24.05
2022-08-08T02:47:34.745Z,24.03
2022-08-08T02:53:39.497Z,24.02
2022-08-08T02:59:58.218Z,24.04
2022-08-08T03:06:04.245Z,24.00
2022-08-08T03:12:14.051Z,23.98
2022-08-08T03:18:15.846Z,23.97
2022-08-08T03:24:32.956Z,23.98
2022-08-08T03:30:34.737Z,24.03
2022-08-08T03:36:36.784Z,23.99
2022-08-08T03:42:39.958Z,23.97
2022-08-08T03:49:38.197Z,23.95
2022-08-08T03:55:56.720Z,23.97
2022-08-08T04:02:12.916Z,23.93
2022-08-08T04:07:54.115Z,23.92
2022-08-08T04:14:04.137Z,23.91
2022-08-08T04:20:17.139Z,23.94
2022-08-08T04:26:20.639Z,23.90
2022-08-08T04:32:30.830Z,23.92
2022-08-08T04:38:35.484Z,23.90
2022-08-08T04:44:37.091Z,23.89
2022-08-08T04:50:40.205Z,23.90
2022-08-08T04:56:46.160Z,23.90
2022-08-08T05:02:47.694Z,23.91
2022-08-08T05:08:54.753Z,23.90
2022-08-08T05:14:57.554Z,23.84
2022-08-08T05:21:05.616Z,23.79
2022-08-08T05:27:07.825Z,23.82
2022-08-08T05:33:09.321Z,23.82
2022-08-08T05:39:10.844Z,23.79
2022-08-08T05:45:25.609Z,23.80
2022-08-08T05:51:48.018Z,23.83
2022-08-08T05:58:05.793Z,23.89
2022-08-08T06:04:08.100Z,23.90
2022-08-08T06:10:24.592Z,24.00
2022-08-08T06:16:30.323Z,24.08
2022-08-08T06:22:35.127Z,24.09
2022-08-08T06:28:37.148Z,24.09
2022-08-08T06:34:40.818Z,24.01
2022-08-08T06:40:53.517Z,23.96
2022-08-08T06:46:56.040Z,23.93
2022-08-08T06:52:57.660Z,23.97
2022-08-08T06:58:59.704Z,24.03
2022-08-08T07:05:02.098Z,24.08
2022-08-08T07:11:07.778Z,24.10
2022-08-08T07:17:14.415Z,24.11
2022-08-08T07:23:22.419Z,24.13
2022-08-08T07:30:01.992Z,24.16
2022-08-08T07:35:48.638Z,24.21
2022-08-08T07:41:58.819Z,24.26
2022-08-08T07:48:06.273Z,24.29
2022-08-08T07:54:10.986Z,24.28
2022-08-08T08:00:17.554Z,24.35
2022-08-08T08:06:19.307Z,24.40
2022-08-08T08:12:35.710Z,24.41
2022-08-08T08:18:51.862Z,24.42
2022-08-08T08:24:59.033Z,24.44
2022-08-08T08:31:09.420Z,24.32
2022-08-08T08:37:11.747Z,24.45
2022-08-08T08:43:18.706Z,24.54
2022-08-08T08:49:20.470Z,24.61
2022-08-08T08:55:26.976Z,24.56
2022-08-08T09:01:30.923Z,24.60
2022-08-08T09:07:39.241Z,24.61
2022-08-08T09:13:53.748Z,24.68
2022-08-08T09:21:59.848Z,24.70
2022-08-08T09:26:21.426Z,24.73
2022-08-08T09:32:23.079Z,24.75
2022-08-08T09:38:24.757Z,24.70
2022-08-08T09:44:34.233Z,24.72
2022-08-08T09:50:36.129Z,24.75
2022-08-08T09:56:46.305Z,24.90
2022-08-08T10:02:49.681Z,24.94
2022-08-08T10:08:53.321Z,25.27
2022-08-08T10:14:54.842Z,25.48
2022-08-08T10:21:00.720Z,25.38
2022-08-08T10:27:13.056Z,25.56
2022-08-08T10:33:15.400Z,25.62
2022-08-08T10:39:23.431Z,25.58
2022-08-08T10:45:38.999Z,25.42
2022-08-08T10:51:51.079Z,25.51
2022-08-08T10:57:53.424Z,25.47
2022-08-08T11:04:01.919Z,25.48
2022-08-08T11:10:05.974Z,25.35
2022-08-08T11:16:11.439Z,25.29
2022-08-08T11:22:31.706Z,25.13
2022-08-08T11:28:33.832Z,25.11
2022-08-08T11:35:07.974Z,25.05
2022-08-08T11:41:02.029Z,25.14
2022-08-08T11:47:12.651Z,25.18
2022-08-08T11:53:14.861Z,25.11
2022-08-08T11:59:16.422Z,25.24
2022-08-08T12:05:18.388Z,25.23
2022-08-08T12:11:28.586Z,25.30
2022-08-08T12:17:30.854Z,25.21
2022-08-08T12:23:43.504Z,25.28
2022-08-08T12:29:53.203Z,25.24
2022-08-08T12:35:54.776Z,25.38
2022-08-08T12:42:01.257Z,25.42
2022-08-08T12:48:09.608Z,25.40
2022-08-08T12:54:25.250Z,25.23
2022-08-08T13:00:33.858Z,25.31
2022-08-08T13:06:40.565Z,25.37
2022-08-08T13:12:47.065Z,25.39
2022-08-08T13:18:58.429Z,25.38
2022-08-08T13:25:04.094Z,25.39
2022-08-08T13:31:07.784Z,25.37
2022-08-08T13:37:11.035Z,25.44
2022-08-08T13:43:21.442Z,25.47
2022-08-08T13:50:34.875Z,25.46
2022-08-08T13:55:51.974Z,25.44
2022-08-08T14:01:57.889Z,25.34
2022-08-08T14:08:02.250Z,25.47
2022-08-08T14:14:13.207Z,25.43
2022-08-08T14:20:56.564Z,25.54
2022-08-08T14:26:46.316Z,25.41
2022-08-08T14:32:53.190Z,25.37
2022-08-08T14:38:58.782Z,25.35
2022-08-08T14:45:03.062Z,25.36
2022-08-08T14:51:06.484Z,25.37
2022-08-08T14:57:08.504Z,25.40
2022-08-08T15:03:14.989Z,25.40
2022-08-08T15:09:19.576Z,25.35
2022-08-08T15:16:01.284Z,25.27
2022-08-08T15:21:45.511Z,25.26
2022-08-08T15:28:04.079Z,25.15
2022-08-08T15:34:08.699Z,25.13
2022-08-08T15:40:30.262Z,25.16
2022-08-08T15:46:35.401Z,25.17
2022-08-08T15:52:37.143Z,25.08
2022-08-08T15:58:45.906Z,25.03
2022-08-08T16:04:53.587Z,25.01
2022-08-08T16:13:05.868Z,24.97
2022-08-08T16:17:58.131Z,24.97
2022-08-08T16:23:42.746Z,24.93
2022-08-08T16:30:08.121Z,24.90
2022-08-08T16:36:08.695Z,24.89
2022-08-08T16:42:17.673Z,24.87
2022-08-08T16:48:20.090Z,24.86
2022-08-08T16:55:04.084Z,24.85
2022-08-08T17:00:42.993Z,24.81
2022-08-08T17:06:50.715Z,24.79
2022-08-08T17:12:53.133Z,24.78
2022-08-08T17:18:54.899Z,24.72
2022-08-08T17:24:56.333Z,24.66
2022-08-08T17:30:59.132Z,24.61
2022-08-08T17:37:03.185Z,24.68
2022-08-08T17:43:05.059Z,24.72
2022-08-08T17:49:06.565Z,24.66
2022-08-08T17:56:03.562Z,24.66
2022-08-08T18:01:46.536Z,24.59
2022-08-08T18:08:02.499Z,24.54
2022-08-08T18:14:05.112Z,24.49
2022-08-08T18:20:43.628Z,24.41
2022-08-08T18:26:46.592Z,24.38
2022-08-08T18:32:56.509Z,24.31
2022-08-08T18:38:58.050Z,24.31
2022-08-08T18:44:59.736Z,24.45
2022-08-08T18:51:01.348Z,24.55
2022-08-08T18:57:04.050Z,24.75
2022-08-08T19:03:10.390Z,24.75
2022-08-08T19:09:13.391Z,24.67
2022-08-08T19:15:15.177Z,24.64
2022-08-08T19:21:29.180Z,24.68
2022-08-08T19:27:55.786Z,24.62
2022-08-08T19:34:29.656Z,24.73
2022-08-08T19:40:16.891Z,24.69
2022-08-08T19:46:23.711Z,24.63
2022-08-08T19:52:34.376Z,24.62
2022-08-08T19:58:38.576Z,24.66
2022-08-08T20:04:41.056Z,24.75
2022-08-08T20:10:43.094Z,24.74
2022-08-08T20:16:44.619Z,24.76
2022-08-08T20:22:48.720Z,24.76
2022-08-08T20:28:51.108Z,24.76
2022-08-08T20:34:53.757Z,24.74
2022-08-08T20:41:05.610Z,24.73
2022-08-08T20:47:23.207Z,24.73
2022-08-08T20:53:59.826Z,24.66
2022-08-08T20:59:59.540Z,24.54
2022-08-08T21:06:01.184Z,24.58
2022-08-08T21:12:10.024Z,24.51
2022-08-08T21:18:12.075Z,24.51
2022-08-08T21:24:24.068Z,24.49
2022-08-08T21:30:30.269Z,24.48
2022-08-08T21:36:31.727Z,24.49
2022-08-08T21:42:34.166Z,24.46
2022-08-08T21:48:41.173Z,24.45
2022-08-08T21:55:02.482Z,24.45
2022-08-08T22:01:04.943Z,24.44
2022-08-08T22:07:06.408Z,24.42
2022-08-08T22:13:16.908Z,24.40
2022-08-08T22:19:23.947Z,24.37
2022-08-08T22:25:26.160Z,24.39
2022-08-08T22:31:29.545Z,24.36
2022-08-08T22:37:53.891Z,24.33
2022-08-08T22:44:02.249Z,24.28
2022-08-08T22:50:24.974Z,24.29
2022-08-08T22:56:28.250Z,24.28
2022-08-08T23:02:30.531Z,24.30
2022-08-08T23:08:35.552Z,24.27
2022-08-08T23:14:42.805Z,24.26
2022-08-08T23:21:04.416Z,24.21
2022-08-08T23:27:06.730Z,24.24
2022-08-08T23:33:13.641Z,24.21
2022-08-08T23:39:21.037Z,24.18
2022-08-08T23:49:07.965Z,24.19
2022-08-08T23:52:05.017Z,24.19
2022-08-08T23:58:05.316Z,24.20
